sensor_id;sensor_type;location;lat;lon;timestamp;temperature;humidity
16999;DHT22;10211;49.476;11.010;2023-03-18T00:02:07;6.50;97.10
16999;DHT22;10211;49.476;11.010;2023-03-18T00:04:34;6.50;98.40
16999;DHT22;10211;49.476;11.010;2023-03-18T00:07:02;6.50;98.80
16999;DHT22;10211;49.476;11.010;2023-03-18T00:09:29;6.50;99.00
16999;DHT22;10211;49.476;11.010;2023-03-18T00:11:56;6.50;99.40
16999;DHT22;10211;49.476;11.010;2023-03-18T00:14:23;6.60;99.60
16999;DHT22;10211;49.476;11.010;2023-03-18T00:16:51;6.50;99.90
16999;DHT22;10211;49.476;11.010;2023-03-18T00:19:18;6.50;99.90
16999;DHT22;10211;49.476;11.010;2023-03-18T00:21:45;6.50;99.90
16999;DHT22;10211;49.476;11.010;2023-03-18T00:24:12;6.50;99.90
16999;DHT22;10211;49.476;11.010;2023-03-18T00:26:39;6.40;99.90
16999;DHT22;10211;49.476;11.010;2023-03-18T00:29:06;6.40;99.90
16999;DHT22;10211;49.476;11.010;2023-03-18T00:31:34;6.40;99.90
16999;DHT22;10211;49.476;11.010;2023-03-18T00:34:04;6.40;99.90
16999;DHT22;10211;49.476;11.010;2023-03-18T00:36:32;6.30;99.90
16999;DHT22;10211;49.476;11.010;2023-03-18T00:38:59;6.30;99.90
16999;DHT22;10211;49.476;11.010;2023-03-18T00:41:28;6.30;99.90
16999;DHT22;10211;49.476;11.010;2023-03-18T00:43:59;6.30;99.90
16999;DHT22;10211;49.476;11.010;2023-03-18T00:46:28;6.30;99.90
16999;DHT22;10211;49.476;11.010;2023-03-18T00:48:57;6.20;99.90
16999;DHT22;10211;49.476;11.010;2023-03-18T00:51:28;6.20;99.90
16999;DHT22;10211;49.476;11.010;2023-03-18T00:53:57;6.20;99.90
16999;DHT22;10211;49.476;11.010;2023-03-18T00:56:26;6.20;99.90
16999;DHT22;10211;49.476;11.010;2023-03-18T00:58:54;6.20;99.90
16999;DHT22;10211;49.476;11.010;2023-03-18T01:01:23;6.20;99.90
16999;DHT22;10211;49.476;11.010;2023-03-18T01:03:51;6.20;99.90
16999;DHT22;10211;49.476;11.010;2023-03-18T01:06:19;6.20;99.90
16999;DHT22;10211;49.476;11.010;2023-03-18T01:08:49;6.20;99.90
16999;DHT22;10211;49.476;11.010;2023-03-18T01:11:16;6.20;99.90
16999;DHT22;10211;49.476;11.010;2023-03-18T01:13:44;6.20;99.90
16999;DHT22;10211;49.476;11.010;2023-03-18T01:16:12;6.20;99.90
16999;DHT22;10211;49.476;11.010;2023-03-18T01:18:40;6.10;99.90
16999;DHT22;10211;49.476;11.010;2023-03-18T01:21:08;6.10;99.90
16999;DHT22;10211;49.476;11.010;2023-03-18T01:23:37;6.10;99.90
16999;DHT22;10211;49.476;11.010;2023-03-18T01:26:12;6.10;99.90
16999;DHT22;10211;49.476;11.010;2023-03-18T01:28:39;6.00;99.90
16999;DHT22;10211;49.476;11.010;2023-03-18T01:31:06;6.10;99.90
16999;DHT22;10211;49.476;11.010;2023-03-18T01:33:33;6.00;99.90
16999;DHT22;10211;49.476;11.010;2023-03-18T01:36:03;6.00;99.90
16999;DHT22;10211;49.476;11.010;2023-03-18T01:38:30;6.00;99.90
16999;DHT22;10211;49.476;11.010;2023-03-18T01:41:00;6.00;99.90
16999;DHT22;10211;49.476;11.010;2023-03-18T01:43:31;6.00;99.90
16999;DHT22;10211;49.476;11.010;2023-03-18T01:46:21;6.00;99.90
16999;DHT22;10211;49.476;11.010;2023-03-18T01:48:48;6.00;99.90
16999;DHT22;10211;49.476;11.010;2023-03-18T01:51:17;6.00;99.90
16999;DHT22;10211;49.476;11.010;2023-03-18T01:53:47;6.00;99.90
16999;DHT22;10211;49.476;11.010;2023-03-18T01:56:16;6.00;99.90
16999;DHT22;10211;49.476;11.010;2023-03-18T01:58:48;6.00;99.90
16999;DHT22;10211;49.476;11.010;2023-03-18T02:01:19;6.00;99.90
16999;DHT22;10211;49.476;11.010;2023-03-18T02:03:47;6.00;99.90
16999;DHT22;10211;49.476;11.010;2023-03-18T02:06:15;6.00;99.90
16999;DHT22;10211;49.476;11.010;2023-03-18T02:08:42;6.00;99.90
16999;DHT22;10211;49.476;11.010;2023-03-18T02:11:09;6.00;99.90
16999;DHT22;10211;49.476;11.010;2023-03-18T02:13:46;6.00;99.90
16999;DHT22;10211;49.476;11.010;2023-03-18T02:16:17;6.00;99.90
16999;DHT22;10211;49.476;11.010;2023-03-18T02:18:51;6.00;99.90
16999;DHT22;10211;49.476;11.010;2023-03-18T02:21:29;6.00;99.90
16999;DHT22;10211;49.476;11.010;2023-03-18T02:24:03;6.00;99.90
16999;DHT22;10211;49.476;11.010;2023-03-18T02:26:39;6.00;99.90
16999;DHT22;10211;49.476;11.010;2023-03-18T02:29:10;6.00;99.90
16999;DHT22;10211;49.476;11.010;2023-03-18T02:31:39;6.00;99.90
16999;DHT22;10211;49.476;11.010;2023-03-18T02:34:08;6.00;99.90
16999;DHT22;10211;49.476;11.010;2023-03-18T02:36:36;6.00;99.90
16999;DHT22;10211;49.476;11.010;2023-03-18T02:39:03;5.90;99.90
16999;DHT22;10211;49.476;11.010;2023-03-18T02:41:32;5.90;99.90
16999;DHT22;10211;49.476;11.010;2023-03-18T02:43:59;5.90;99.90
16999;DHT22;10211;49.476;11.010;2023-03-18T02:46:31;5.90;99.90
16999;DHT22;10211;49.476;11.010;2023-03-18T02:49:02;5.90;99.90
16999;DHT22;10211;49.476;11.010;2023-03-18T02:51:31;5.90;99.90
16999;DHT22;10211;49.476;11.010;2023-03-18T02:54:02;5.90;99.90
16999;DHT22;10211;49.476;11.010;2023-03-18T02:56:31;5.90;99.90
16999;DHT22;10211;49.476;11.010;2023-03-18T02:58:57;5.90;99.90
16999;DHT22;10211;49.476;11.010;2023-03-18T03:01:24;5.80;99.90
16999;DHT22;10211;49.476;11.010;2023-03-18T03:03:52;5.80;99.90
16999;DHT22;10211;49.476;11.010;2023-03-18T03:06:19;5.80;99.90
16999;DHT22;10211;49.476;11.010;2023-03-18T03:08:46;5.70;99.90
16999;DHT22;10211;49.476;11.010;2023-03-18T03:11:13;5.70;99.90
16999;DHT22;10211;49.476;11.010;2023-03-18T03:13:41;5.60;99.90
16999;DHT22;10211;49.476;11.010;2023-03-18T03:16:10;5.60;99.90
16999;DHT22;10211;49.476;11.010;2023-03-18T03:18:37;5.50;99.90
16999;DHT22;10211;49.476;11.010;2023-03-18T03:21:07;5.50;99.90
16999;DHT22;10211;49.476;11.010;2023-03-18T03:23:35;5.40;99.90
16999;DHT22;10211;49.476;11.010;2023-03-18T03:26:03;5.40;99.90
16999;DHT22;10211;49.476;11.010;2023-03-18T03:28:31;5.40;99.90
16999;DHT22;10211;49.476;11.010;2023-03-18T03:30:58;5.30;99.90
16999;DHT22;10211;49.476;11.010;2023-03-18T03:33:26;5.30;99.90
16999;DHT22;10211;49.476;11.010;2023-03-18T03:35:53;5.30;99.90
16999;DHT22;10211;49.476;11.010;2023-03-18T03:38:21;5.30;99.90
16999;DHT22;10211;49.476;11.010;2023-03-18T03:40:49;5.20;99.90
16999;DHT22;10211;49.476;11.010;2023-03-18T03:43:17;5.20;99.90
16999;DHT22;10211;49.476;11.010;2023-03-18T03:45:44;5.20;99.90
16999;DHT22;10211;49.476;11.010;2023-03-18T03:48:10;5.20;99.90
16999;DHT22;10211;49.476;11.010;2023-03-18T03:50:38;5.10;99.90
16999;DHT22;10211;49.476;11.010;2023-03-18T03:53:05;5.10;99.90
16999;DHT22;10211;49.476;11.010;2023-03-18T03:55:33;5.10;99.90
16999;DHT22;10211;49.476;11.010;2023-03-18T03:58:00;5.00;99.90
16999;DHT22;10211;49.476;11.010;2023-03-18T04:00:27;5.00;99.90
16999;DHT22;10211;49.476;11.010;2023-03-18T04:02:55;5.00;99.90
16999;DHT22;10211;49.476;11.010;2023-03-18T04:05:23;5.00;99.90
16999;DHT22;10211;49.476;11.010;2023-03-18T04:07:51;5.00;99.90
16999;DHT22;10211;49.476;11.010;2023-03-18T04:10:20;4.90;99.90
16999;DHT22;10211;49.476;11.010;2023-03-18T04:12:49;4.90;99.90
16999;DHT22;10211;49.476;11.010;2023-03-18T04:15:17;4.90;99.90
16999;DHT22;10211;49.476;11.010;2023-03-18T04:17:44;4.90;99.90
16999;DHT22;10211;49.476;11.010;2023-03-18T04:20:12;5.00;99.90
16999;DHT22;10211;49.476;11.010;2023-03-18T04:22:39;5.00;99.90
16999;DHT22;10211;49.476;11.010;2023-03-18T04:25:08;5.10;99.90
16999;DHT22;10211;49.476;11.010;2023-03-18T04:27:37;5.20;99.90
16999;DHT22;10211;49.476;11.010;2023-03-18T04:30:08;5.20;99.90
16999;DHT22;10211;49.476;11.010;2023-03-18T04:32:35;5.30;99.90
16999;DHT22;10211;49.476;11.010;2023-03-18T04:35:02;5.30;99.90
16999;DHT22;10211;49.476;11.010;2023-03-18T04:37:29;5.40;99.90
16999;DHT22;10211;49.476;11.010;2023-03-18T04:39:58;5.40;99.90
16999;DHT22;10211;49.476;11.010;2023-03-18T04:42:25;5.40;99.90
16999;DHT22;10211;49.476;11.010;2023-03-18T04:44:52;5.40;99.90
16999;DHT22;10211;49.476;11.010;2023-03-18T04:47:20;5.30;99.90
16999;DHT22;10211;49.476;11.010;2023-03-18T04:49:47;5.30;99.90
16999;DHT22;10211;49.476;11.010;2023-03-18T04:52:13;5.20;99.90
16999;DHT22;10211;49.476;11.010;2023-03-18T04:54:41;5.20;99.90
16999;DHT22;10211;49.476;11.010;2023-03-18T04:57:08;5.10;99.90
16999;DHT22;10211;49.476;11.010;2023-03-18T04:59:35;5.10;99.90
16999;DHT22;10211;49.476;11.010;2023-03-18T05:02:03;5.00;99.90
16999;DHT22;10211;49.476;11.010;2023-03-18T05:04:31;5.00;99.90
16999;DHT22;10211;49.476;11.010;2023-03-18T05:06:58;4.90;99.90
16999;DHT22;10211;49.476;11.010;2023-03-18T05:09:25;4.90;99.90
16999;DHT22;10211;49.476;11.010;2023-03-18T05:11:51;4.90;99.90
16999;DHT22;10211;49.476;11.010;2023-03-18T05:14:18;4.90;99.90
16999;DHT22;10211;49.476;11.010;2023-03-18T05:16:45;4.80;99.90
16999;DHT22;10211;49.476;11.010;2023-03-18T05:19:12;4.80;99.90
16999;DHT22;10211;49.476;11.010;2023-03-18T05:21:41;4.80;99.90
16999;DHT22;10211;49.476;11.010;2023-03-18T05:24:08;4.80;99.90
16999;DHT22;10211;49.476;11.010;2023-03-18T05:26:35;4.80;99.90
16999;DHT22;10211;49.476;11.010;2023-03-18T05:29:03;4.80;99.90
16999;DHT22;10211;49.476;11.010;2023-03-18T05:31:30;4.90;99.90
16999;DHT22;10211;49.476;11.010;2023-03-18T05:33:56;4.90;99.90
16999;DHT22;10211;49.476;11.010;2023-03-18T05:36:24;4.90;99.90
16999;DHT22;10211;49.476;11.010;2023-03-18T05:38:52;5.00;99.90
16999;DHT22;10211;49.476;11.010;2023-03-18T05:41:18;5.00;99.90
16999;DHT22;10211;49.476;11.010;2023-03-18T05:43:45;5.00;99.90
16999;DHT22;10211;49.476;11.010;2023-03-18T05:46:13;5.00;99.90
16999;DHT22;10211;49.476;11.010;2023-03-18T05:48:39;5.10;99.90
16999;DHT22;10211;49.476;11.010;2023-03-18T05:51:07;5.10;99.90
16999;DHT22;10211;49.476;11.010;2023-03-18T05:53:34;5.10;99.90
16999;DHT22;10211;49.476;11.010;2023-03-18T05:56:02;5.10;99.90
16999;DHT22;10211;49.476;11.010;2023-03-18T05:58:29;5.20;99.90
16999;DHT22;10211;49.476;11.010;2023-03-18T06:00:58;5.20;99.90
16999;DHT22;10211;49.476;11.010;2023-03-18T06:03:25;5.30;99.90
16999;DHT22;10211;49.476;11.010;2023-03-18T06:05:52;5.30;99.90
16999;DHT22;10211;49.476;11.010;2023-03-18T06:08:19;5.40;99.90
16999;DHT22;10211;49.476;11.010;2023-03-18T06:10:45;5.40;99.90
16999;DHT22;10211;49.476;11.010;2023-03-18T06:13:14;5.50;99.90
16999;DHT22;10211;49.476;11.010;2023-03-18T06:15:40;5.60;99.90
16999;DHT22;10211;49.476;11.010;2023-03-18T06:18:07;5.70;99.90
16999;DHT22;10211;49.476;11.010;2023-03-18T06:20:34;5.70;99.90
16999;DHT22;10211;49.476;11.010;2023-03-18T06:23:01;5.90;99.90
16999;DHT22;10211;49.476;11.010;2023-03-18T06:25:28;6.00;99.90
16999;DHT22;10211;49.476;11.010;2023-03-18T06:27:54;6.10;99.90
16999;DHT22;10211;49.476;11.010;2023-03-18T06:30:23;6.20;99.90
16999;DHT22;10211;49.476;11.010;2023-03-18T06:32:49;6.30;99.90
16999;DHT22;10211;49.476;11.010;2023-03-18T06:35:17;6.40;99.90
16999;DHT22;10211;49.476;11.010;2023-03-18T06:37:44;6.50;99.90
16999;DHT22;10211;49.476;11.010;2023-03-18T06:40:11;6.60;99.90
16999;DHT22;10211;49.476;11.010;2023-03-18T06:42:38;6.70;99.90
16999;DHT22;10211;49.476;11.010;2023-03-18T06:45:07;6.90;99.90
16999;DHT22;10211;49.476;11.010;2023-03-18T06:47:35;7.00;99.90
16999;DHT22;10211;49.476;11.010;2023-03-18T06:50:03;7.20;99.90
16999;DHT22;10211;49.476;11.010;2023-03-18T06:52:30;7.30;99.90
16999;DHT22;10211;49.476;11.010;2023-03-18T06:54:57;7.40;99.90
16999;DHT22;10211;49.476;11.010;2023-03-18T06:57:23;7.50;99.90
16999;DHT22;10211;49.476;11.010;2023-03-18T06:59:51;7.60;99.90
16999;DHT22;10211;49.476;11.010;2023-03-18T07:02:18;7.60;99.90
16999;DHT22;10211;49.476;11.010;2023-03-18T07:04:49;7.70;99.90
16999;DHT22;10211;49.476;11.010;2023-03-18T07:07:17;7.80;99.90
16999;DHT22;10211;49.476;11.010;2023-03-18T07:09:43;7.80;99.90
16999;DHT22;10211;49.476;11.010;2023-03-18T07:12:11;7.90;99.90
16999;DHT22;10211;49.476;11.010;2023-03-18T07:14:39;7.90;99.90
16999;DHT22;10211;49.476;11.010;2023-03-18T07:17:06;8.00;99.90
16999;DHT22;10211;49.476;11.010;2023-03-18T07:19:33;8.10;99.90
16999;DHT22;10211;49.476;11.010;2023-03-18T07:22:01;8.30;99.90
16999;DHT22;10211;49.476;11.010;2023-03-18T07:24:29;8.20;99.90
16999;DHT22;10211;49.476;11.010;2023-03-18T07:26:55;8.70;99.90
16999;DHT22;10211;49.476;11.010;2023-03-18T07:29:23;8.90;99.90
16999;DHT22;10211;49.476;11.010;2023-03-18T07:31:50;9.20;99.90
16999;DHT22;10211;49.476;11.010;2023-03-18T07:34:16;9.30;99.90
16999;DHT22;10211;49.476;11.010;2023-03-18T07:36:45;9.40;99.90
16999;DHT22;10211;49.476;11.010;2023-03-18T07:39:14;9.60;99.90
16999;DHT22;10211;49.476;11.010;2023-03-18T07:41:41;9.80;99.90
16999;DHT22;10211;49.476;11.010;2023-03-18T07:44:08;9.90;99.90
16999;DHT22;10211;49.476;11.010;2023-03-18T07:46:35;10.00;99.90
16999;DHT22;10211;49.476;11.010;2023-03-18T07:49:03;10.10;99.90
16999;DHT22;10211;49.476;11.010;2023-03-18T07:51:29;10.30;99.90
16999;DHT22;10211;49.476;11.010;2023-03-18T07:53:57;10.60;99.90
16999;DHT22;10211;49.476;11.010;2023-03-18T07:56:25;11.00;99.40
16999;DHT22;10211;49.476;11.010;2023-03-18T07:58:52;11.70;98.30
16999;DHT22;10211;49.476;11.010;2023-03-18T08:01:19;12.40;96.50
16999;DHT22;10211;49.476;11.010;2023-03-18T08:03:46;13.10;94.60
16999;DHT22;10211;49.476;11.010;2023-03-18T08:06:13;13.70;92.60
16999;DHT22;10211;49.476;11.010;2023-03-18T08:08:42;14.10;90.90
16999;DHT22;10211;49.476;11.010;2023-03-18T08:11:09;14.40;90.00
16999;DHT22;10211;49.476;11.010;2023-03-18T08:13:37;14.30;88.40
16999;DHT22;10211;49.476;11.010;2023-03-18T08:16:05;14.50;88.20
16999;DHT22;10211;49.476;11.010;2023-03-18T08:18:32;14.80;87.30
16999;DHT22;10211;49.476;11.010;2023-03-18T08:20:59;15.20;86.40
16999;DHT22;10211;49.476;11.010;2023-03-18T08:23:26;15.60;84.10
16999;DHT22;10211;49.476;11.010;2023-03-18T08:25:54;16.20;80.90
16999;DHT22;10211;49.476;11.010;2023-03-18T08:28:20;16.90;78.90
16999;DHT22;10211;49.476;11.010;2023-03-18T08:30:52;17.90;76.90
16999;DHT22;10211;49.476;11.010;2023-03-18T08:33:20;18.20;72.70
16999;DHT22;10211;49.476;11.010;2023-03-18T08:35:50;17.80;72.50
16999;DHT22;10211;49.476;11.010;2023-03-18T08:38:17;17.90;73.10
16999;DHT22;10211;49.476;11.010;2023-03-18T08:40:44;18.00;72.50
16999;DHT22;10211;49.476;11.010;2023-03-18T08:43:11;18.40;72.00
16999;DHT22;10211;49.476;11.010;2023-03-18T08:45:38;18.80;71.10
16999;DHT22;10211;49.476;11.010;2023-03-18T08:48:06;19.00;69.70
16999;DHT22;10211;49.476;11.010;2023-03-18T08:50:34;19.50;68.50
16999;DHT22;10211;49.476;11.010;2023-03-18T08:53:01;20.30;66.30
16999;DHT22;10211;49.476;11.010;2023-03-18T08:55:29;20.50;64.00
16999;DHT22;10211;49.476;11.010;2023-03-18T08:57:57;21.10;63.10
16999;DHT22;10211;49.476;11.010;2023-03-18T09:00:24;22.40;61.50
16999;DHT22;10211;49.476;11.010;2023-03-18T09:02:51;23.30;59.00
16999;DHT22;10211;49.476;11.010;2023-03-18T09:05:20;24.50;56.50
16999;DHT22;10211;49.476;11.010;2023-03-18T09:07:47;25.10;53.70
16999;DHT22;10211;49.476;11.010;2023-03-18T09:10:14;25.00;52.80
16999;DHT22;10211;49.476;11.010;2023-03-18T09:12:43;25.40;51.80
16999;DHT22;10211;49.476;11.010;2023-03-18T09:15:11;25.60;51.20
16999;DHT22;10211;49.476;11.010;2023-03-18T09:17:40;27.60;50.60
16999;DHT22;10211;49.476;11.010;2023-03-18T09:20:07;28.70;46.70
16999;DHT22;10211;49.476;11.010;2023-03-18T09:22:36;29.60;45.70
16999;DHT22;10211;49.476;11.010;2023-03-18T09:25:03;30.00;44.90
16999;DHT22;10211;49.476;11.010;2023-03-18T09:27:30;30.60;43.90
16999;DHT22;10211;49.476;11.010;2023-03-18T09:29:57;31.00;42.40
16999;DHT22;10211;49.476;11.010;2023-03-18T09:32:24;30.80;43.20
16999;DHT22;10211;49.476;11.010;2023-03-18T09:34:52;30.40;43.00
16999;DHT22;10211;49.476;11.010;2023-03-18T09:37:18;30.10;42.90
16999;DHT22;10211;49.476;11.010;2023-03-18T09:39:47;30.20;43.20
16999;DHT22;10211;49.476;11.010;2023-03-18T09:45:15;30.40;42.10
16999;DHT22;10211;49.476;11.010;2023-03-18T09:47:54;31.40;41.70
16999;DHT22;10211;49.476;11.010;2023-03-18T09:50:34;32.50;39.70
16999;DHT22;10211;49.476;11.010;2023-03-18T09:53:11;32.60;39.50
16999;DHT22;10211;49.476;11.010;2023-03-18T09:55:43;33.90;38.90
16999;DHT22;10211;49.476;11.010;2023-03-18T09:58:19;35.20;37.10
16999;DHT22;10211;49.476;11.010;2023-03-18T10:00:47;35.40;36.50
16999;DHT22;10211;49.476;11.010;2023-03-18T10:03:23;33.90;36.50
16999;DHT22;10211;49.476;11.010;2023-03-18T10:05:55;32.20;37.40
16999;DHT22;10211;49.476;11.010;2023-03-18T10:08:41;29.00;40.20
16999;DHT22;10211;49.476;11.010;2023-03-18T10:11:19;27.10;43.40
16999;DHT22;10211;49.476;11.010;2023-03-18T10:13:55;24.40;45.70
16999;DHT22;10211;49.476;11.010;2023-03-18T10:16:27;23.30;48.30
16999;DHT22;10211;49.476;11.010;2023-03-18T10:18:54;23.80;49.00
16999;DHT22;10211;49.476;11.010;2023-03-18T10:21:26;26.30;45.00
16999;DHT22;10211;49.476;11.010;2023-03-18T10:24:00;28.80;41.40
16999;DHT22;10211;49.476;11.010;2023-03-18T10:26:36;30.90;38.90
16999;DHT22;10211;49.476;11.010;2023-03-18T10:29:12;32.70;37.90
16999;DHT22;10211;49.476;11.010;2023-03-18T10:31:54;33.90;35.10
16999;DHT22;10211;49.476;11.010;2023-03-18T10:34:28;35.50;34.70
16999;DHT22;10211;49.476;11.010;2023-03-18T10:37:04;37.20;34.40
16999;DHT22;10211;49.476;11.010;2023-03-18T10:39:31;38.70;33.40
16999;DHT22;10211;49.476;11.010;2023-03-18T10:42:06;40.10;32.40
16999;DHT22;10211;49.476;11.010;2023-03-18T10:44:38;41.40;31.70
16999;DHT22;10211;49.476;11.010;2023-03-18T10:47:12;42.40;30.00
16999;DHT22;10211;49.476;11.010;2023-03-18T10:49:43;43.00;29.30
16999;DHT22;10211;49.476;11.010;2023-03-18T10:52:16;42.40;29.30
16999;DHT22;10211;49.476;11.010;2023-03-18T10:54:45;42.40;29.50
16999;DHT22;10211;49.476;11.010;2023-03-18T10:57:19;41.70;29.00
16999;DHT22;10211;49.476;11.010;2023-03-18T10:59:47;42.20;29.20
16999;DHT22;10211;49.476;11.010;2023-03-18T11:02:17;43.00;28.80
16999;DHT22;10211;49.476;11.010;2023-03-18T11:04:47;43.00;28.60
16999;DHT22;10211;49.476;11.010;2023-03-18T11:07:18;42.90;28.40
16999;DHT22;10211;49.476;11.010;2023-03-18T11:09:45;43.00;28.50
16999;DHT22;10211;49.476;11.010;2023-03-18T11:12:18;43.30;28.60
16999;DHT22;10211;49.476;11.010;2023-03-18T11:14:49;44.00;28.30
16999;DHT22;10211;49.476;11.010;2023-03-18T11:17:21;43.60;28.40
16999;DHT22;10211;49.476;11.010;2023-03-18T11:19:58;44.20;27.90
16999;DHT22;10211;49.476;11.010;2023-03-18T11:22:26;44.30;27.70
16999;DHT22;10211;49.476;11.010;2023-03-18T11:25:02;44.40;27.40
16999;DHT22;10211;49.476;11.010;2023-03-18T11:27:37;43.90;27.80
16999;DHT22;10211;49.476;11.010;2023-03-18T11:30:12;44.10;27.80
16999;DHT22;10211;49.476;11.010;2023-03-18T11:32:50;44.60;27.50
16999;DHT22;10211;49.476;11.010;2023-03-18T11:35:19;44.40;26.90
16999;DHT22;10211;49.476;11.010;2023-03-18T11:37:46;44.50;27.30
16999;DHT22;10211;49.476;11.010;2023-03-18T11:40:21;44.80;27.60
16999;DHT22;10211;49.476;11.010;2023-03-18T11:42:56;44.80;27.40
16999;DHT22;10211;49.476;11.010;2023-03-18T11:45:38;44.80;27.00
16999;DHT22;10211;49.476;11.010;2023-03-18T11:48:13;44.10;27.00
16999;DHT22;10211;49.476;11.010;2023-03-18T11:50:48;44.10;27.20
16999;DHT22;10211;49.476;11.010;2023-03-18T11:53:27;44.10;27.30
16999;DHT22;10211;49.476;11.010;2023-03-18T11:56:01;43.80;27.00
16999;DHT22;10211;49.476;11.010;2023-03-18T11:58:46;42.90;27.60
16999;DHT22;10211;49.476;11.010;2023-03-18T12:01:21;41.80;27.70
16999;DHT22;10211;49.476;11.010;2023-03-18T12:04:12;41.50;28.10
16999;DHT22;10211;49.476;11.010;2023-03-18T12:06:53;39.90;28.30
16999;DHT22;10211;49.476;11.010;2023-03-18T12:09:26;39.60;29.30
16999;DHT22;10211;49.476;11.010;2023-03-18T12:12:05;39.00;28.80
16999;DHT22;10211;49.476;11.010;2023-03-18T12:14:39;39.00;29.00
16999;DHT22;10211;49.476;11.010;2023-03-18T12:17:26;39.00;29.10
16999;DHT22;10211;49.476;11.010;2023-03-18T12:20:34;38.40;29.20
16999;DHT22;10211;49.476;11.010;2023-03-18T12:23:12;37.90;29.50
16999;DHT22;10211;49.476;11.010;2023-03-18T12:25:57;38.10;29.60
16999;DHT22;10211;49.476;11.010;2023-03-18T12:28:51;38.30;29.80
16999;DHT22;10211;49.476;11.010;2023-03-18T12:31:47;38.10;29.80
16999;DHT22;10211;49.476;11.010;2023-03-18T12:34:24;38.30;29.50
16999;DHT22;10211;49.476;11.010;2023-03-18T12:37:09;38.00;29.70
16999;DHT22;10211;49.476;11.010;2023-03-18T12:40:06;37.70;30.00
16999;DHT22;10211;49.476;11.010;2023-03-18T12:42:59;37.30;30.50
16999;DHT22;10211;49.476;11.010;2023-03-18T12:45:34;36.30;30.90
16999;DHT22;10211;49.476;11.010;2023-03-18T12:48:07;35.40;31.00
16999;DHT22;10211;49.476;11.010;2023-03-18T12:50:37;34.30;32.10
16999;DHT22;10211;49.476;11.010;2023-03-18T12:53:10;33.30;33.20
16999;DHT22;10211;49.476;11.010;2023-03-18T12:55:41;33.20;33.40
16999;DHT22;10211;49.476;11.010;2023-03-18T12:58:12;33.50;33.40
16999;DHT22;10211;49.476;11.010;2023-03-18T13:00:44;34.10;33.30
16999;DHT22;10211;49.476;11.010;2023-03-18T13:03:22;34.30;32.20
16999;DHT22;10211;49.476;11.010;2023-03-18T13:05:53;33.80;32.40
16999;DHT22;10211;49.476;11.010;2023-03-18T13:11:47;33.70;33.10
16999;DHT22;10211;49.476;11.010;2023-03-18T13:14:23;33.70;33.20
16999;DHT22;10211;49.476;11.010;2023-03-18T13:16:52;33.70;33.30
16999;DHT22;10211;49.476;11.010;2023-03-18T13:19:22;33.40;33.50
16999;DHT22;10211;49.476;11.010;2023-03-18T13:21:53;33.30;33.60
16999;DHT22;10211;49.476;11.010;2023-03-18T13:24:33;33.00;33.80
16999;DHT22;10211;49.476;11.010;2023-03-18T13:27:35;32.30;34.20
16999;DHT22;10211;49.476;11.010;2023-03-18T13:30:11;31.50;34.60
16999;DHT22;10211;49.476;11.010;2023-03-18T13:32:55;30.90;35.20
16999;DHT22;10211;49.476;11.010;2023-03-18T13:36:00;30.70;36.20
16999;DHT22;10211;49.476;11.010;2023-03-18T13:38:44;30.30;36.80
16999;DHT22;10211;49.476;11.010;2023-03-18T13:41:42;30.10;36.80
16999;DHT22;10211;49.476;11.010;2023-03-18T13:44:14;29.80;37.00
16999;DHT22;10211;49.476;11.010;2023-03-18T13:46:52;29.30;37.20
16999;DHT22;10211;49.476;11.010;2023-03-18T13:49:21;29.00;37.80
16999;DHT22;10211;49.476;11.010;2023-03-18T13:51:54;28.50;38.60
16999;DHT22;10211;49.476;11.010;2023-03-18T13:54:22;28.20;38.60
16999;DHT22;10211;49.476;11.010;2023-03-18T13:56:52;27.90;39.00
16999;DHT22;10211;49.476;11.010;2023-03-18T13:59:43;27.20;39.10
16999;DHT22;10211;49.476;11.010;2023-03-18T14:02:33;26.40;39.90
16999;DHT22;10211;49.476;11.010;2023-03-18T14:05:00;25.70;40.90
16999;DHT22;10211;49.476;11.010;2023-03-18T14:07:29;25.00;42.20
16999;DHT22;10211;49.476;11.010;2023-03-18T14:10:17;24.20;43.20
16999;DHT22;10211;49.476;11.010;2023-03-18T14:12:45;23.50;44.40
16999;DHT22;10211;49.476;11.010;2023-03-18T14:15:36;22.80;45.10
16999;DHT22;10211;49.476;11.010;2023-03-18T14:18:23;22.20;46.00
16999;DHT22;10211;49.476;11.010;2023-03-18T14:20:58;21.80;47.00
16999;DHT22;10211;49.476;11.010;2023-03-18T14:23:43;21.60;47.80
16999;DHT22;10211;49.476;11.010;2023-03-18T14:26:20;21.50;47.60
16999;DHT22;10211;49.476;11.010;2023-03-18T14:28:52;21.50;48.10
16999;DHT22;10211;49.476;11.010;2023-03-18T14:31:25;21.30;48.00
16999;DHT22;10211;49.476;11.010;2023-03-18T14:37:23;21.50;47.70
16999;DHT22;10211;49.476;11.010;2023-03-18T14:39:55;21.60;47.80
16999;DHT22;10211;49.476;11.010;2023-03-18T14:42:29;21.70;48.00
16999;DHT22;10211;49.476;11.010;2023-03-18T14:45:04;21.70;47.40
16999;DHT22;10211;49.476;11.010;2023-03-18T14:47:39;21.60;47.40
16999;DHT22;10211;49.476;11.010;2023-03-18T14:50:14;21.50;47.80
16999;DHT22;10211;49.476;11.010;2023-03-18T14:52:44;21.50;47.80
16999;DHT22;10211;49.476;11.010;2023-03-18T14:55:17;21.40;47.50
16999;DHT22;10211;49.476;11.010;2023-03-18T14:57:45;21.20;48.50
16999;DHT22;10211;49.476;11.010;2023-03-18T15:00:13;21.00;48.60
16999;DHT22;10211;49.476;11.010;2023-03-18T15:02:40;20.90;49.00
16999;DHT22;10211;49.476;11.010;2023-03-18T15:05:10;20.90;49.20
16999;DHT22;10211;49.476;11.010;2023-03-18T15:07:40;20.80;49.30
16999;DHT22;10211;49.476;11.010;2023-03-18T15:10:09;20.90;50.00
16999;DHT22;10211;49.476;11.010;2023-03-18T15:12:39;20.90;49.30
16999;DHT22;10211;49.476;11.010;2023-03-18T15:15:13;21.00;49.60
16999;DHT22;10211;49.476;11.010;2023-03-18T15:17:44;20.90;49.00
16999;DHT22;10211;49.476;11.010;2023-03-18T15:20:12;20.90;49.50
16999;DHT22;10211;49.476;11.010;2023-03-18T15:22:40;20.80;49.40
16999;DHT22;10211;49.476;11.010;2023-03-18T15:25:15;20.80;49.60
16999;DHT22;10211;49.476;11.010;2023-03-18T15:27:44;20.80;49.60
16999;DHT22;10211;49.476;11.010;2023-03-18T15:30:23;20.90;49.50
16999;DHT22;10211;49.476;11.010;2023-03-18T15:32:59;20.90;49.60
16999;DHT22;10211;49.476;11.010;2023-03-18T15:35:27;21.00;49.30
16999;DHT22;10211;49.476;11.010;2023-03-18T15:38:11;21.00;49.40
16999;DHT22;10211;49.476;11.010;2023-03-18T15:40:46;21.00;49.80
16999;DHT22;10211;49.476;11.010;2023-03-18T15:43:27;20.90;49.80
16999;DHT22;10211;49.476;11.010;2023-03-18T15:45:56;20.70;50.20
16999;DHT22;10211;49.476;11.010;2023-03-18T15:48:27;20.60;49.40
16999;DHT22;10211;49.476;11.010;2023-03-18T15:50:57;20.30;50.00
16999;DHT22;10211;49.476;11.010;2023-03-18T15:53:26;20.00;50.10
16999;DHT22;10211;49.476;11.010;2023-03-18T15:55:56;19.90;50.20